sensor_id;sensor_type;location;lat;lon;timestamp;pressure;altitude;pressure_sealevel;temperature;humidity
7182;BME280;3632;42.724;23.298;2023-04-28T00:01:12;95712.25;;;8.34;54.83
7182;BME280;3632;42.724;23.298;2023-04-28T00:03:39;95174.50;;;5.42;55.08
7182;BME280;3632;42.724;23.298;2023-04-28T00:06:05;95622.69;;;8.18;54.96
7182;BME280;3632;42.724;23.298;2023-04-28T00:08:33;95617.28;;;8.10;55.55
7182;BME280;3632;42.724;23.298;2023-04-28T00:11:01;95191.22;;;4.43;55.62
7182;BME280;3632;42.724;23.298;2023-04-28T00:13:27;95634.59;;;8.03;55.07
7182;BME280;3632;42.724;23.298;2023-04-28T00:15:54;95616.53;;;7.81;55.27
7182;BME280;3632;42.724;23.298;2023-04-28T00:18:21;95621.38;;;7.71;56.47
7182;BME280;3632;42.724;23.298;2023-04-28T00:20:48;95570.47;;;7.33;56.34
7182;BME280;3632;42.724;23.298;2023-04-28T00:23:15;95615.22;;;7.61;56.43
7182;BME280;3632;42.724;23.298;2023-04-28T00:25:42;95617.41;;;7.67;57.29
7182;BME280;3632;42.724;23.298;2023-04-28T00:28:10;95619.00;;;7.68;57.01
7182;BME280;3632;42.724;23.298;2023-04-28T00:30:36;95621.38;;;7.71;57.26
7182;BME280;3632;42.724;23.298;2023-04-28T00:33:03;95622.28;;;7.70;56.96
7182;BME280;3632;42.724;23.298;2023-04-28T00:35:30;95629.34;;;7.79;57.83
7182;BME280;3632;42.724;23.298;2023-04-28T00:37:57;95628.78;;;7.89;56.47
7182;BME280;3632;42.724;23.298;2023-04-28T00:40:31;95634.09;;;7.01;56.41
7182;BME280;3632;42.724;23.298;2023-04-28T00:42:58;94874.25;;;3.13;56.73
7182;BME280;3632;42.724;23.298;2023-04-28T00:45:26;95633.25;;;7.71;56.67
7182;BME280;3632;42.724;23.298;2023-04-28T00:47:53;95633.53;;;7.66;57.10
7182;BME280;3632;42.724;23.298;2023-04-28T00:50:20;95423.53;;;6.36;57.24
7182;BME280;3632;42.724;23.298;2023-04-28T00:52:47;94953.94;;;2.83;57.31
7182;BME280;3632;42.724;23.298;2023-04-28T00:55:14;95632.44;;;7.56;57.57
7182;BME280;3632;42.724;23.298;2023-04-28T00:57:42;95643.78;;;7.51;58.00
7182;BME280;3632;42.724;23.298;2023-04-28T01:00:09;95665.44;;;7.42;58.68
7182;BME280;3632;42.724;23.298;2023-04-28T01:02:37;95653.38;;;7.31;58.88
7182;BME280;3632;42.724;23.298;2023-04-28T01:05:05;95716.78;;;7.31;58.73
7182;BME280;3632;42.724;23.298;2023-04-28T01:07:32;95653.03;;;7.38;58.39
7182;BME280;3632;42.724;23.298;2023-04-28T01:09:59;95594.75;;;6.95;58.94
7182;BME280;3632;42.724;23.298;2023-04-28T01:12:26;95654.41;;;7.29;58.33
7182;BME280;3632;42.724;23.298;2023-04-28T01:14:52;95668.59;;;7.31;58.95
7182;BME280;3632;42.724;23.298;2023-04-28T01:17:19;95642.44;;;7.31;58.99
7182;BME280;3632;42.724;23.298;2023-04-28T01:19:47;95599.00;;;6.95;58.84
7182;BME280;3632;42.724;23.298;2023-04-28T01:22:14;95649.16;;;7.32;58.64
7182;BME280;3632;42.724;23.298;2023-04-28T01:24:42;95655.38;;;7.26;59.10
7182;BME280;3632;42.724;23.298;2023-04-28T01:27:10;94983.31;;;2.98;58.57
7182;BME280;3632;42.724;23.298;2023-04-28T01:29:36;95518.47;;;5.53;58.47
7182;BME280;3632;42.724;23.298;2023-04-28T01:32:03;95338.34;;;4.90;58.95
7182;BME280;3632;42.724;23.298;2023-04-28T01:34:30;95656.47;;;7.37;59.08
7182;BME280;3632;42.724;23.298;2023-04-28T01:36:57;95490.94;;;6.37;58.62
7182;BME280;3632;42.724;23.298;2023-04-28T01:39:24;95648.78;;;7.38;59.04
7182;BME280;3632;42.724;23.298;2023-04-28T01:41:52;95548.38;;;6.51;58.63
7182;BME280;3632;42.724;23.298;2023-04-28T01:44:19;95650.31;;;7.26;58.76
7182;BME280;3632;42.724;23.298;2023-04-28T01:46:46;95654.56;;;7.26;59.26
7182;BME280;3632;42.724;23.298;2023-04-28T01:49:12;95649.50;;;7.26;60.21
7182;BME280;3632;42.724;23.298;2023-04-28T01:51:39;95582.88;;;6.81;59.50
7182;BME280;3632;42.724;23.298;2023-04-28T01:54:07;95590.03;;;6.89;59.37
7182;BME280;3632;42.724;23.298;2023-04-28T01:56:33;95662.00;;;7.15;59.12
7182;BME280;3632;42.724;23.298;2023-04-28T01:59:01;95651.66;;;7.18;59.40
7182;BME280;3632;42.724;23.298;2023-04-28T02:01:28;95653.56;;;7.14;58.96
7182;BME280;3632;42.724;23.298;2023-04-28T02:03:55;95540.09;;;6.49;58.67
7182;BME280;3632;42.724;23.298;2023-04-28T02:06:22;95661.47;;;7.24;58.86
7182;BME280;3632;42.724;23.298;2023-04-28T02:08:48;95660.38;;;7.28;58.63
7182;BME280;3632;42.724;23.298;2023-04-28T02:11:15;95649.50;;;7.12;58.33
7182;BME280;3632;42.724;23.298;2023-04-28T02:13:43;95654.84;;;7.21;57.93
7182;BME280;3632;42.724;23.298;2023-04-28T02:16:11;95661.06;;;7.02;59.47
7182;BME280;3632;42.724;23.298;2023-04-28T02:18:38;95657.09;;;6.98;59.06
7182;BME280;3632;42.724;23.298;2023-04-28T02:21:08;95663.59;;;6.87;59.56
7182;BME280;3632;42.724;23.298;2023-04-28T02:23:35;95670.03;;;6.93;59.32
7182;BME280;3632;42.724;23.298;2023-04-28T02:26:02;95540.69;;;5.94;58.71
7182;BME280;3632;42.724;23.298;2023-04-28T02:28:29;95677.63;;;6.93;59.14
7182;BME280;3632;42.724;23.298;2023-04-28T02:31:03;95672.22;;;6.99;59.35
7182;BME280;3632;42.724;23.298;2023-04-28T02:33:31;95673.75;;;7.02;58.48
7182;BME280;3632;42.724;23.298;2023-04-28T02:35:58;95448.94;;;5.61;57.92
7182;BME280;3632;42.724;23.298;2023-04-28T02:38:26;95675.19;;;6.92;58.12
7182;BME280;3632;42.724;23.298;2023-04-28T02:40:58;95350.34;;;4.71;58.92
7182;BME280;3632;42.724;23.298;2023-04-28T02:43:26;95685.06;;;6.66;59.43
7182;BME280;3632;42.724;23.298;2023-04-28T02:45:53;95678.59;;;6.47;59.60
7182;BME280;3632;42.724;23.298;2023-04-28T02:48:20;95693.75;;;6.62;59.41
7182;BME280;3632;42.724;23.298;2023-04-28T02:50:49;95744.16;;;5.73;59.99
7182;BME280;3632;42.724;23.298;2023-04-28T02:53:17;95521.00;;;5.38;60.21
7182;BME280;3632;42.724;23.298;2023-04-28T02:55:44;95693.31;;;6.40;60.32
7182;BME280;3632;42.724;23.298;2023-04-28T02:58:10;95664.16;;;6.33;60.03
7182;BME280;3632;42.724;23.298;2023-04-28T03:00:37;95683.53;;;6.34;61.02
7182;BME280;3632;42.724;23.298;2023-04-28T03:03:04;95173.41;;;3.22;60.32
7182;BME280;3632;42.724;23.298;2023-04-28T03:05:31;95684.66;;;6.44;60.06
7182;BME280;3632;42.724;23.298;2023-04-28T03:07:59;95706.38;;;6.48;60.26
7182;BME280;3632;42.724;23.298;2023-04-28T03:10:26;95634.84;;;5.99;59.66
7182;BME280;3632;42.724;23.298;2023-04-28T03:12:52;95695.75;;;6.57;60.19
7182;BME280;3632;42.724;23.298;2023-04-28T03:15:19;95696.69;;;6.70;61.00
7182;BME280;3632;42.724;23.298;2023-04-28T03:17:46;95502.06;;;5.45;59.29
7182;BME280;3632;42.724;23.298;2023-04-28T03:20:13;94962.13;;;2.06;59.50
7182;BME280;3632;42.724;23.298;2023-04-28T03:22:39;95708.09;;;6.77;59.12
7182;BME280;3632;42.724;23.298;2023-04-28T03:25:08;95645.16;;;6.26;58.94
7182;BME280;3632;42.724;23.298;2023-04-28T03:27:35;95560.00;;;5.95;58.24
7182;BME280;3632;42.724;23.298;2023-04-28T03:30:02;95383.81;;;4.90;59.01
7182;BME280;3632;42.724;23.298;2023-04-28T03:32:29;95629.84;;;6.43;59.11
7182;BME280;3632;42.724;23.298;2023-04-28T03:34:56;95815.91;;;6.97;59.06
7182;BME280;3632;42.724;23.298;2023-04-28T03:37:23;95735.47;;;7.01;59.60
7182;BME280;3632;42.724;23.298;2023-04-28T03:39:49;95719.59;;;6.83;59.00
7182;BME280;3632;42.724;23.298;2023-04-28T03:42:17;95742.03;;;6.89;58.53
7182;BME280;3632;42.724;23.298;2023-04-28T03:44:44;95682.50;;;6.52;58.65
7182;BME280;3632;42.724;23.298;2023-04-28T03:47:11;95671.59;;;6.36;58.59
7182;BME280;3632;42.724;23.298;2023-04-28T03:49:38;95368.19;;;4.37;59.01
7182;BME280;3632;42.724;23.298;2023-04-28T03:52:05;95743.03;;;6.86;58.85
7182;BME280;3632;42.724;23.298;2023-04-28T03:54:32;95753.06;;;6.88;58.15
7182;BME280;3632;42.724;23.298;2023-04-28T03:56:59;95625.03;;;6.09;58.27
7182;BME280;3632;42.724;23.298;2023-04-28T03:59:27;95762.06;;;6.94;58.16
7182;BME280;3632;42.724;23.298;2023-04-28T04:01:54;95793.22;;;6.96;58.31
7182;BME280;3632;42.724;23.298;2023-04-28T04:04:21;95796.34;;;6.69;57.35
7182;BME280;3632;42.724;23.298;2023-04-28T04:06:48;95767.88;;;6.96;57.71
7182;BME280;3632;42.724;23.298;2023-04-28T04:09:15;95784.94;;;6.92;58.04
7182;BME280;3632;42.724;23.298;2023-04-28T04:11:41;95763.88;;;6.92;57.04
7182;BME280;3632;42.724;23.298;2023-04-28T04:14:08;95362.16;;;3.58;57.30
7182;BME280;3632;42.724;23.298;2023-04-28T04:16:36;95770.78;;;7.04;57.59
7182;BME280;3632;42.724;23.298;2023-04-28T04:19:03;95753.19;;;7.01;57.62
7182;BME280;3632;42.724;23.298;2023-04-28T04:21:30;95777.13;;;7.11;56.96
7182;BME280;3632;42.724;23.298;2023-04-28T04:23:57;95784.75;;;7.11;56.54
7182;BME280;3632;42.724;23.298;2023-04-28T04:26:24;95750.91;;;5.89;56.97
7182;BME280;3632;42.724;23.298;2023-04-28T04:28:51;95635.91;;;6.11;56.86
7182;BME280;3632;42.724;23.298;2023-04-28T04:31:17;95271.28;;;3.94;57.09
7182;BME280;3632;42.724;23.298;2023-04-28T04:33:46;95789.72;;;7.12;56.96
7182;BME280;3632;42.724;23.298;2023-04-28T04:36:13;95645.91;;;5.34;57.18
7182;BME280;3632;42.724;23.298;2023-04-28T04:38:39;95790.56;;;7.13;57.54
7182;BME280;3632;42.724;23.298;2023-04-28T04:41:06;95730.16;;;6.75;57.21
7182;BME280;3632;42.724;23.298;2023-04-28T04:43:33;95806.28;;;7.18;57.58
7182;BME280;3632;42.724;23.298;2023-04-28T04:46:00;95798.53;;;7.21;57.88
7182;BME280;3632;42.724;23.298;2023-04-28T04:48:28;95935.25;;;7.24;57.25
7182;BME280;3632;42.724;23.298;2023-04-28T04:50:56;95806.94;;;7.21;57.35
7182;BME280;3632;42.724;23.298;2023-04-28T04:53:23;95728.53;;;6.74;57.84
7182;BME280;3632;42.724;23.298;2023-04-28T04:55:50;95797.06;;;7.17;57.66
7182;BME280;3632;42.724;23.298;2023-04-28T04:58:16;95807.38;;;7.14;58.00
7182;BME280;3632;42.724;23.298;2023-04-28T05:00:43;95639.41;;;5.92;57.71
7182;BME280;3632;42.724;23.298;2023-04-28T05:03:10;95805.59;;;7.30;57.43
7182;BME280;3632;42.724;23.298;2023-04-28T05:05:37;95119.47;;;2.93;56.78
7182;BME280;3632;42.724;23.298;2023-04-28T05:08:06;95817.63;;;7.26;57.59
7182;BME280;3632;42.724;23.298;2023-04-28T05:10:33;95590.03;;;5.85;58.40
7182;BME280;3632;42.724;23.298;2023-04-28T05:13:00;95696.38;;;6.61;57.38
7182;BME280;3632;42.724;23.298;2023-04-28T05:15:26;95821.59;;;7.16;57.62
7182;BME280;3632;42.724;23.298;2023-04-28T05:17:53;95697.06;;;6.33;58.17
7182;BME280;3632;42.724;23.298;2023-04-28T05:20:20;95502.25;;;4.46;58.77
7182;BME280;3632;42.724;23.298;2023-04-28T05:22:47;95822.19;;;7.35;57.37
7182;BME280;3632;42.724;23.298;2023-04-28T05:25:15;95665.47;;;6.40;57.10
7182;BME280;3632;42.724;23.298;2023-04-28T05:27:42;95501.28;;;4.97;57.97
7182;BME280;3632;42.724;23.298;2023-04-28T05:30:09;95825.47;;;7.52;57.31
7182;BME280;3632;42.724;23.298;2023-04-28T05:32:36;95823.50;;;7.57;56.14
7182;BME280;3632;42.724;23.298;2023-04-28T05:35:04;95836.00;;;7.60;56.68
7182;BME280;3632;42.724;23.298;2023-04-28T05:37:31;95824.56;;;7.53;57.24
7182;BME280;3632;42.724;23.298;2023-04-28T05:39:58;95874.66;;;7.49;57.46
7182;BME280;3632;42.724;23.298;2023-04-28T05:42:26;95817.72;;;7.55;57.18
7182;BME280;3632;42.724;23.298;2023-04-28T05:44:53;95808.56;;;7.66;57.75
7182;BME280;3632;42.724;23.298;2023-04-28T05:47:20;95811.00;;;7.82;57.74
7182;BME280;3632;42.724;23.298;2023-04-28T05:49:47;95836.03;;;7.88;57.53
7182;BME280;3632;42.724;23.298;2023-04-28T05:52:13;95942.44;;;7.91;57.26
7182;BME280;3632;42.724;23.298;2023-04-28T05:54:40;95091.41;;;3.01;56.84
7182;BME280;3632;42.724;23.298;2023-04-28T05:57:07;95352.75;;;4.88;56.16
7182;BME280;3632;42.724;23.298;2023-04-28T05:59:35;95434.47;;;5.78;54.99
7182;BME280;3632;42.724;23.298;2023-04-28T06:02:02;95824.50;;;8.25;54.96
7182;BME280;3632;42.724;23.298;2023-04-28T06:04:29;95823.50;;;8.27;54.67
7182;BME280;3632;42.724;23.298;2023-04-28T06:06:56;95235.41;;;4.66;53.47
7182;BME280;3632;42.724;23.298;2023-04-28T06:09:23;95822.97;;;8.22;54.21
7182;BME280;3632;42.724;23.298;2023-04-28T06:11:50;95272.56;;;4.32;55.69
7182;BME280;3632;42.724;23.298;2023-04-28T06:14:16;95846.44;;;7.55;56.39
7182;BME280;3632;42.724;23.298;2023-04-28T06:16:45;95656.78;;;6.14;59.49
7182;BME280;3632;42.724;23.298;2023-04-28T06:19:11;95754.53;;;6.92;59.02
7182;BME280;3632;42.724;23.298;2023-04-28T06:21:39;95537.56;;;5.73;63.09
7182;BME280;3632;42.724;23.298;2023-04-28T06:24:06;95822.06;;;7.67;58.30
7182;BME280;3632;42.724;23.298;2023-04-28T06:26:33;95712.50;;;7.04;57.96
7182;BME280;3632;42.724;23.298;2023-04-28T06:29:00;95800.16;;;7.80;57.55
7182;BME280;3632;42.724;23.298;2023-04-28T06:31:27;95822.91;;;7.67;56.63
7182;BME280;3632;42.724;23.298;2023-04-28T06:33:55;95822.59;;;7.58;57.61
7182;BME280;3632;42.724;23.298;2023-04-28T06:36:21;95306.94;;;3.86;57.14
7182;BME280;3632;42.724;23.298;2023-04-28T06:38:48;95818.72;;;7.66;58.63
7182;BME280;3632;42.724;23.298;2023-04-28T06:41:15;95861.06;;;7.80;58.24
7182;BME280;3632;42.724;23.298;2023-04-28T06:43:42;95810.75;;;8.29;56.63
7182;BME280;3632;42.724;23.298;2023-04-28T06:46:09;95815.38;;;8.22;56.60
7182;BME280;3632;42.724;23.298;2023-04-28T06:48:36;95824.88;;;7.91;56.57
7182;BME280;3632;42.724;23.298;2023-04-28T06:51:04;95818.19;;;7.75;58.19
7182;BME280;3632;42.724;23.298;2023-04-28T06:53:31;95817.28;;;7.91;56.09
7182;BME280;3632;42.724;23.298;2023-04-28T06:55:58;95814.91;;;8.16;56.37
7182;BME280;3632;42.724;23.298;2023-04-28T06:58:25;95870.41;;;8.50;54.68
7182;BME280;3632;42.724;23.298;2023-04-28T07:00:51;95810.81;;;8.27;55.27
7182;BME280;3632;42.724;23.298;2023-04-28T07:03:18;95812.19;;;8.05;55.26
7182;BME280;3632;42.724;23.298;2023-04-28T07:05:45;95815.72;;;8.16;54.33
7182;BME280;3632;42.724;23.298;2023-04-28T07:08:14;95806.91;;;8.36;53.32
7182;BME280;3632;42.724;23.298;2023-04-28T07:10:41;95802.66;;;8.78;51.56
7182;BME280;3632;42.724;23.298;2023-04-28T07:13:08;95805.97;;;9.05;51.19
7182;BME280;3632;42.724;23.298;2023-04-28T07:15:35;95802.69;;;9.30;51.14
7182;BME280;3632;42.724;23.298;2023-04-28T07:18:02;95810.06;;;9.07;49.29
7182;BME280;3632;42.724;23.298;2023-04-28T07:20:29;95807.25;;;9.12;49.59
7182;BME280;3632;42.724;23.298;2023-04-28T07:22:55;95815.78;;;8.84;48.56
7182;BME280;3632;42.724;23.298;2023-04-28T07:25:23;95796.88;;;9.15;49.07
7182;BME280;3632;42.724;23.298;2023-04-28T07:27:50;95788.38;;;9.54;51.68
7182;BME280;3632;42.724;23.298;2023-04-28T07:30:18;95802.31;;;9.74;49.69
7182;BME280;3632;42.724;23.298;2023-04-28T07:32:45;95793.03;;;9.47;49.51
7182;BME280;3632;42.724;23.298;2023-04-28T07:35:12;95957.63;;;9.20;49.65
7182;BME280;3632;42.724;23.298;2023-04-28T07:37:39;95810.00;;;9.34;50.08
7182;BME280;3632;42.724;23.298;2023-04-28T07:40:06;95840.94;;;9.28;47.11
7182;BME280;3632;42.724;23.298;2023-04-28T07:42:34;95796.41;;;9.73;46.19
7182;BME280;3632;42.724;23.298;2023-04-28T07:45:01;95749.06;;;9.71;45.78
7182;BME280;3632;42.724;23.298;2023-04-28T07:47:29;95698.00;;;9.48;45.56
7182;BME280;3632;42.724;23.298;2023-04-28T07:49:55;95757.19;;;10.01;45.98
7182;BME280;3632;42.724;23.298;2023-04-28T07:52:24;95787.91;;;10.23;47.70
7182;BME280;3632;42.724;23.298;2023-04-28T07:54:51;95729.59;;;9.95;45.93
7182;BME280;3632;42.724;23.298;2023-04-28T07:57:17;95556.78;;;7.90;45.57
7182;BME280;3632;42.724;23.298;2023-04-28T07:59:45;95788.72;;;10.36;45.51
7182;BME280;3632;42.724;23.298;2023-04-28T08:02:12;95787.16;;;10.70;44.52
7182;BME280;3632;42.724;23.298;2023-04-28T08:04:39;95223.22;;;7.07;45.52
7182;BME280;3632;42.724;23.298;2023-04-28T08:07:07;95746.34;;;10.23;45.68
7182;BME280;3632;42.724;23.298;2023-04-28T08:09:34;95786.06;;;10.38;45.63
7182;BME280;3632;42.724;23.298;2023-04-28T08:12:02;95782.91;;;10.34;45.39
7182;BME280;3632;42.724;23.298;2023-04-28T08:14:29;95404.81;;;7.85;45.67
7182;BME280;3632;42.724;23.298;2023-04-28T08:16:57;95786.97;;;10.73;44.14
7182;BME280;3632;42.724;23.298;2023-04-28T08:19:24;95766.72;;;10.35;44.81
7182;BME280;3632;42.724;23.298;2023-04-28T08:21:51;95789.16;;;10.90;44.75
7182;BME280;3632;42.724;23.298;2023-04-28T08:24:18;95672.28;;;10.26;44.84
7182;BME280;3632;42.724;23.298;2023-04-28T08:26:45;95786.38;;;10.93;44.08
7182;BME280;3632;42.724;23.298;2023-04-28T08:29:12;95788.38;;;11.01;43.66
7182;BME280;3632;42.724;23.298;2023-04-28T08:31:39;95710.09;;;10.67;42.52
7182;BME280;3632;42.724;23.298;2023-04-28T08:34:07;95301.75;;;8.69;42.15
7182;BME280;3632;42.724;23.298;2023-04-28T08:36:34;95697.13;;;10.70;42.65
7182;BME280;3632;42.724;23.298;2023-04-28T08:39:01;95786.59;;;11.25;42.27
7182;BME280;3632;42.724;23.298;2023-04-28T08:41:32;95756.84;;;11.02;42.71
7182;BME280;3632;42.724;23.298;2023-04-28T08:43:59;95687.81;;;10.58;43.46
7182;BME280;3632;42.724;23.298;2023-04-28T08:46:27;95661.34;;;11.28;43.00
7182;BME280;3632;42.724;23.298;2023-04-28T08:48:59;95477.28;;;9.98;42.18
7182;BME280;3632;42.724;23.298;2023-04-28T08:51:33;95786.03;;;12.23;42.71
7182;BME280;3632;42.724;23.298;2023-04-28T08:54:02;95734.03;;;11.91;41.92
7182;BME280;3632;42.724;23.298;2023-04-28T08:56:31;95441.06;;;9.94;42.33
7182;BME280;3632;42.724;23.298;2023-04-28T08:59:01;95751.19;;;12.11;44.11
7182;BME280;3632;42.724;23.298;2023-04-28T09:01:28;95085.41;;;8.17;42.91
7182;BME280;3632;42.724;23.298;2023-04-28T09:03:55;95762.72;;;12.71;40.49
7182;BME280;3632;42.724;23.298;2023-04-28T09:06:22;95457.97;;;10.30;39.61
7182;BME280;3632;42.724;23.298;2023-04-28T09:08:50;95759.78;;;12.21;40.63
7182;BME280;3632;42.724;23.298;2023-04-28T09:11:18;95418.91;;;9.14;40.62
7182;BME280;3632;42.724;23.298;2023-04-28T09:13:45;95755.97;;;12.16;41.64
7182;BME280;3632;42.724;23.298;2023-04-28T09:16:12;95740.09;;;12.55;41.38
7182;BME280;3632;42.724;23.298;2023-04-28T09:18:40;95659.00;;;12.46;39.90
7182;BME280;3632;42.724;23.298;2023-04-28T09:21:21;95739.41;;;13.17;39.37
7182;BME280;3632;42.724;23.298;2023-04-28T09:23:49;95462.47;;;11.16;38.75
7182;BME280;3632;42.724;23.298;2023-04-28T09:26:16;95730.31;;;13.45;39.31
7182;BME280;3632;42.724;23.298;2023-04-28T09:28:43;95736.44;;;13.63;40.63
7182;BME280;3632;42.724;23.298;2023-04-28T09:31:23;95731.47;;;13.92;37.76
7182;BME280;3632;42.724;23.298;2023-04-28T09:33:58;95728.81;;;14.03;36.92
7182;BME280;3632;42.724;23.298;2023-04-28T09:36:26;95721.38;;;14.09;36.14
7182;BME280;3632;42.724;23.298;2023-04-28T09:38:58;95603.75;;;13.47;36.99
7182;BME280;3632;42.724;23.298;2023-04-28T09:41:34;95710.19;;;14.50;37.50
7182;BME280;3632;42.724;23.298;2023-04-28T09:44:12;95700.63;;;14.62;36.51
7182;BME280;3632;42.724;23.298;2023-04-28T09:46:40;95290.38;;;11.61;36.80
7182;BME280;3632;42.724;23.298;2023-04-28T09:49:07;95206.50;;;11.26;37.10
7182;BME280;3632;42.724;23.298;2023-04-28T09:51:34;95717.75;;;14.90;35.66
7182;BME280;3632;42.724;23.298;2023-04-28T09:54:03;95708.19;;;14.92;35.46
7182;BME280;3632;42.724;23.298;2023-04-28T09:56:31;95703.84;;;15.02;37.02
7182;BME280;3632;42.724;23.298;2023-04-28T09:58:59;95624.69;;;14.98;36.08
7182;BME280;3632;42.724;23.298;2023-04-28T10:01:37;95689.19;;;15.51;35.95
7182;BME280;3632;42.724;23.298;2023-04-28T10:04:06;95672.19;;;15.77;34.97
7182;BME280;3632;42.724;23.298;2023-04-28T10:06:33;95519.47;;;14.42;36.00
7182;BME280;3632;42.724;23.298;2023-04-28T10:09:04;95679.63;;;15.80;34.24
7182;BME280;3632;42.724;23.298;2023-04-28T10:11:32;95560.75;;;15.14;33.64
7182;BME280;3632;42.724;23.298;2023-04-28T10:13:59;95639.59;;;15.78;34.12
7182;BME280;3632;42.724;23.298;2023-04-28T10:16:29;95421.53;;;13.33;33.31
7182;BME280;3632;42.724;23.298;2023-04-28T10:18:57;95516.50;;;14.37;32.89
7182;BME280;3632;42.724;23.298;2023-04-28T10:21:25;95684.97;;;16.41;34.34
7182;BME280;3632;42.724;23.298;2023-04-28T10:24:03;95665.28;;;16.68;31.93
7182;BME280;3632;42.724;23.298;2023-04-28T10:27:03;95654.69;;;15.90;31.15
7182;BME280;3632;42.724;23.298;2023-04-28T10:29:31;95660.25;;;17.02;32.46
7182;BME280;3632;42.724;23.298;2023-04-28T10:32:18;95653.41;;;17.10;33.49
7182;BME280;3632;42.724;23.298;2023-04-28T10:34:46;95657.88;;;17.26;31.93
7182;BME280;3632;42.724;23.298;2023-04-28T10:37:13;95654.72;;;17.40;30.73
7182;BME280;3632;42.724;23.298;2023-04-28T10:42:53;95628.31;;;17.64;29.83
7182;BME280;3632;42.724;23.298;2023-04-28T10:46:00;95635.34;;;17.96;31.29
7182;BME280;3632;42.724;23.298;2023-04-28T10:51:32;95634.47;;;18.29;29.91
7182;BME280;3632;42.724;23.298;2023-04-28T10:54:18;95535.19;;;17.59;30.47
7182;BME280;3632;42.724;23.298;2023-04-28T10:57:16;95622.59;;;18.44;31.75
7182;BME280;3632;42.724;23.298;2023-04-28T10:59:49;95620.72;;;18.62;33.83
7182;BME280;3632;42.724;23.298;2023-04-28T11:02:38;95608.84;;;19.33;36.83
7182;BME280;3632;42.724;23.298;2023-04-28T11:05:10;95610.00;;;19.06;34.42
7182;BME280;3632;42.724;23.298;2023-04-28T11:07:37;95378.06;;;17.41;35.15
7182;BME280;3632;42.724;23.298;2023-04-28T11:10:05;95607.47;;;18.82;32.45
7182;BME280;3632;42.724;23.298;2023-04-28T11:12:32;95602.94;;;18.67;32.36
7182;BME280;3632;42.724;23.298;2023-04-28T11:15:11;95602.94;;;18.59;33.12
7182;BME280;3632;42.724;23.298;2023-04-28T11:17:40;95600.16;;;18.37;35.21
7182;BME280;3632;42.724;23.298;2023-04-28T11:20:11;95601.59;;;18.31;33.15
7182;BME280;3632;42.724;23.298;2023-04-28T11:22:38;95600.81;;;18.47;33.00
7182;BME280;3632;42.724;23.298;2023-04-28T11:25:06;95598.69;;;18.26;34.31
7182;BME280;3632;42.724;23.298;2023-04-28T11:27:33;95594.72;;;18.88;34.46
7182;BME280;3632;42.724;23.298;2023-04-28T11:30:00;95471.28;;;18.59;35.56
7182;BME280;3632;42.724;23.298;2023-04-28T11:32:30;95570.81;;;19.57;35.00
7182;BME280;3632;42.724;23.298;2023-04-28T11:34:57;95274.38;;;17.71;33.87
7182;BME280;3632;42.724;23.298;2023-04-28T11:37:24;95584.44;;;19.82;32.39
7182;BME280;3632;42.724;23.298;2023-04-28T11:39:51;95574.72;;;19.92;32.89
7182;BME280;3632;42.724;23.298;2023-04-28T11:42:18;95484.47;;;19.67;32.01
7182;BME280;3632;42.724;23.298;2023-04-28T11:44:48;95585.44;;;19.81;33.19
7182;BME280;3632;42.724;23.298;2023-04-28T11:47:16;95379.97;;;18.99;33.60
7182;BME280;3632;42.724;23.298;2023-04-28T11:49:55;95519.50;;;20.31;34.15
7182;BME280;3632;42.724;23.298;2023-04-28T11:52:22;95567.38;;;20.72;32.54
7182;BME280;3632;42.724;23.298;2023-04-28T11:54:52;95568.28;;;20.79;33.29
7182;BME280;3632;42.724;23.298;2023-04-28T11:57:20;95564.72;;;21.32;34.14
7182;BME280;3632;42.724;23.298;2023-04-28T11:59:48;95552.59;;;21.10;31.82
7182;BME280;3632;42.724;23.298;2023-04-28T12:02:15;95417.13;;;20.20;33.55
7182;BME280;3632;42.724;23.298;2023-04-28T12:04:43;95172.16;;;18.25;35.79
7182;BME280;3632;42.724;23.298;2023-04-28T12:07:12;95516.53;;;21.09;33.82
7182;BME280;3632;42.724;23.298;2023-04-28T12:09:41;95574.03;;;21.41;31.51
7182;BME280;3632;42.724;23.298;2023-04-28T12:12:09;95637.56;;;21.23;29.88
7182;BME280;3632;42.724;23.298;2023-04-28T12:14:55;95540.78;;;20.78;30.56
7182;BME280;3632;42.724;23.298;2023-04-28T12:17:23;95529.22;;;21.18;30.53
7182;BME280;3632;42.724;23.298;2023-04-28T12:19:50;95531.47;;;21.36;30.96
7182;BME280;3632;42.724;23.298;2023-04-28T12:22:18;95535.13;;;21.27;30.41
7182;BME280;3632;42.724;23.298;2023-04-28T12:24:45;95537.72;;;21.41;30.67
7182;BME280;3632;42.724;23.298;2023-04-28T12:27:16;95524.66;;;21.50;32.56
7182;BME280;3632;42.724;23.298;2023-04-28T12:29:46;95541.56;;;21.16;31.96
7182;BME280;3632;42.724;23.298;2023-04-28T12:32:13;95520.44;;;21.49;35.00
7182;BME280;3632;42.724;23.298;2023-04-28T12:34:41;95311.31;;;19.73;29.27
7182;BME280;3632;42.724;23.298;2023-04-28T12:37:08;95531.91;;;21.54;29.97
7182;BME280;3632;42.724;23.298;2023-04-28T12:39:38;95544.94;;;21.61;29.88
7182;BME280;3632;42.724;23.298;2023-04-28T12:42:05;95519.25;;;21.66;30.81
7182;BME280;3632;42.724;23.298;2023-04-28T12:44:33;95454.00;;;21.48;28.83
7182;BME280;3632;42.724;23.298;2023-04-28T12:47:06;95506.88;;;22.18;30.71
7182;BME280;3632;42.724;23.298;2023-04-28T12:49:33;95502.53;;;22.47;29.38
7182;BME280;3632;42.724;23.298;2023-04-28T12:52:00;95500.28;;;22.65;28.67
7182;BME280;3632;42.724;23.298;2023-04-28T12:54:28;95497.16;;;22.69;27.95
7182;BME280;3632;42.724;23.298;2023-04-28T12:56:56;95493.06;;;22.39;27.68
7182;BME280;3632;42.724;23.298;2023-04-28T12:59:23;95491.41;;;22.53;30.09
7182;BME280;3632;42.724;23.298;2023-04-28T13:01:49;95025.47;;;19.92;29.30
7182;BME280;3632;42.724;23.298;2023-04-28T13:04:16;95484.97;;;23.04;27.44
7182;BME280;3632;42.724;23.298;2023-04-28T13:06:43;95122.69;;;20.01;26.48
7182;BME280;3632;42.724;23.298;2023-04-28T13:09:10;94981.03;;;19.02;27.91
7182;BME280;3632;42.724;23.298;2023-04-28T13:11:37;95478.31;;;21.82;28.08
7182;BME280;3632;42.724;23.298;2023-04-28T13:14:06;95477.81;;;22.08;30.20
7182;BME280;3632;42.724;23.298;2023-04-28T13:16:33;95474.34;;;22.22;28.00
7182;BME280;3632;42.724;23.298;2023-04-28T13:19:00;95336.13;;;21.29;29.45
7182;BME280;3632;42.724;23.298;2023-04-28T13:21:27;95470.72;;;22.17;29.85
7182;BME280;3632;42.724;23.298;2023-04-28T13:23:54;95463.50;;;22.68;28.27
7182;BME280;3632;42.724;23.298;2023-04-28T13:26:22;95471.53;;;23.01;28.46
7182;BME280;3632;42.724;23.298;2023-04-28T13:28:49;95488.81;;;22.81;29.20